Time;durP1;ratioP1;P1;durP2;ratioP2;P2;SDS_P1;SDS_P2;PMS_P1;PMS_P2;Temp;Humidity;BMP_temperature;BMP_pressure;BME280_temperature;BME280_humidity;BME280_pressure;Samples;Min_cycle;Max_cycle;Signal;HPM_P1;HPM_P2
2022/05/04 00:00:47;;;;;;;6.07;2.77;;;;;;;6.68;96.88;100649.22;5050999;28;20175;-70
2022/05/04 00:03:13;;;;;;;4.63;2.70;;;;;;;6.60;97.10;100641.66;5051012;28;20183;-71
2022/05/04 00:05:39;;;;;;;3.50;3.10;;;;;;;6.52;97.32;100643.06;5051101;28;20233;-70
2022/05/04 00:08:05;;;;;;;4.10;2.57;;;;;;;6.43;97.56;100642.03;5051045;28;20179;-71
2022/05/04 00:10:31;;;;;;;2.90;2.70;;;;;;;6.38;98.14;100645.59;5050796;28;20254;-71
2022/05/04 00:12:59;;;;;;;3.83;2.70;;;;;;;6.44;98.98;100649.88;5050897;28;20265;-71
2022/05/04 00:15:25;;;;;;;3.80;2.73;;;;;;;6.37;99.09;100654.81;5050661;28;20232;-71
2022/05/04 00:17:51;;;;;;;4.47;3.17;;;;;;;6.35;99.44;100646.13;5050581;28;20282;-70
2022/05/04 00:20:18;;;;;;;3.33;2.97;;;;;;;6.33;99.39;100651.00;5050713;28;20179;-71
2022/05/04 00:22:44;;;;;;;3.50;3.17;;;;;;;6.26;99.58;100645.09;5050711;28;20186;-71
2022/05/04 00:25:09;;;;;;;5.87;2.67;;;;;;;6.20;99.97;100640.75;5050609;28;20171;-71
2022/05/04 00:27:36;;;;;;;4.40;2.97;;;;;;;6.18;100.00;100651.06;5050362;28;20224;-71
2022/05/04 00:30:03;;;;;;;3.67;2.60;;;;;;;6.11;100.00;100653.28;5050567;28;20267;-71
2022/05/04 00:32:29;;;;;;;5.73;3.20;;;;;;;6.00;100.00;100641.66;5050419;28;20242;-71
2022/05/04 00:34:54;;;;;;;5.03;3.10;;;;;;;6.01;100.00;100645.19;5050532;28;20276;-71
2022/05/04 00:37:19;;;;;;;4.17;2.97;;;;;;;6.07;100.00;100639.44;5049769;28;20207;-71
2022/05/04 00:39:47;;;;;;;5.07;3.23;;;;;;;6.09;100.00;100640.00;5047506;28;20198;-70
2022/05/04 00:42:18;;;;;;;3.53;3.20;;;;;;;6.01;100.00;100645.19;5041907;28;20615;-71
2022/05/04 00:44:47;;;;;;;3.67;3.17;;;;;;;5.98;100.00;100638.41;5034977;28;20214;-70
2022/05/04 00:47:13;;;;;;;4.63;3.23;;;;;;;5.92;100.00;100640.31;5050407;28;20178;-71
2022/05/04 00:49:39;;;;;;;5.07;3.03;;;;;;;5.89;100.00;100634.59;5050443;28;20179;-71
2022/05/04 00:52:06;;;;;;;4.87;3.33;;;;;;;5.84;100.00;100645.47;5050366;28;20174;-71
2022/05/04 00:54:34;;;;;;;3.93;3.53;;;;;;;5.80;100.00;100638.97;5050185;28;20179;-72
2022/05/04 00:57:01;;;;;;;4.50;3.50;;;;;;;5.77;100.00;100643.03;5050175;28;20186;-70
2022/05/04 00:59:27;;;;;;;4.03;3.00;;;;;;;5.74;100.00;100643.56;5050321;28;20179;-71
2022/05/04 01:01:52;;;;;;;5.17;3.77;;;;;;;5.73;100.00;100638.44;5050305;28;20183;-71
2022/05/04 01:04:18;;;;;;;6.60;3.33;;;;;;;5.80;100.00;100638.97;5050279;28;20179;-71
2022/05/04 01:06:46;;;;;;;6.50;4.30;;;;;;;5.80;100.00;100650.63;5052980;28;20171;-71
2022/05/04 01:09:11;;;;;;;7.93;4.10;;;;;;;5.76;100.00;100641.41;5053843;28;20182;-71
2022/05/04 01:11:37;;;;;;;4.97;3.50;;;;;;;5.80;100.00;100647.09;5054137;28;20183;-71
2022/05/04 01:14:08;;;;;;;6.13;4.10;;;;;;;5.82;100.00;100639.50;5054075;28;20171;-70
2022/05/04 01:16:35;;;;;;;5.43;4.20;;;;;;;5.77;100.00;100644.91;5053972;28;20202;-72
2022/05/04 01:19:01;;;;;;;10.93;4.07;;;;;;;5.76;100.00;100648.72;5053730;28;20227;-72
2022/05/04 01:21:27;;;;;;;10.93;3.87;;;;;;;5.69;100.00;100649.00;5053876;28;20175;-70
2022/05/04 01:23:53;;;;;;;4.57;4.10;;;;;;;5.63;100.00;100650.09;5053972;28;20178;-71
2022/05/04 01:26:19;;;;;;;4.87;3.40;;;;;;;5.62;100.00;100652.00;5053855;28;20221;-71
2022/05/04 01:28:45;;;;;;;4.23;3.83;;;;;;;5.64;100.00;100654.44;5053533;28;20179;-71
2022/05/04 01:31:10;;;;;;;9.77;4.87;;;;;;;5.66;100.00;100647.69;5053689;28;20185;-71
2022/05/04 01:33:37;;;;;;;6.30;3.90;;;;;;;5.60;100.00;100653.34;5053559;28;20183;-71
2022/05/04 01:36:03;;;;;;;8.50;3.73;;;;;;;5.53;100.00;100655.53;5054001;28;20556;-70
2022/05/04 01:38:28;;;;;;;5.90;3.90;;;;;;;5.47;100.00;100652.00;5053389;28;20203;-71
2022/05/04 01:40:54;;;;;;;6.17;3.70;;;;;;;5.46;100.00;100655.00;5053841;28;20615;-71
2022/05/04 01:43:19;;;;;;;5.60;3.27;;;;;;;5.50;100.00;100656.09;5053446;28;20195;-71
2022/05/04 01:45:44;;;;;;;8.77;3.83;;;;;;;5.49;100.00;100657.16;5053506;28;20179;-71
2022/05/04 01:48:10;;;;;;;8.60;4.87;;;;;;;5.48;100.00;100653.63;5053221;28;20179;-71
2022/05/04 01:50:35;;;;;;;5.07;3.93;;;;;;;5.49;100.00;100652.53;5053464;28;20262;-72
2022/05/04 01:53:01;;;;;;;8.40;3.83;;;;;;;5.46;100.00;100655.00;5053405;28;20171;-71
2022/05/04 01:55:27;;;;;;;6.57;3.90;;;;;;;5.38;100.00;100654.47;5053520;28;20261;-72
2022/05/04 01:57:53;;;;;;;7.63;4.20;;;;;;;5.36;100.00;100656.66;5053155;28;20293;-71
2022/05/04 02:00:18;;;;;;;5.33;3.73;;;;;;;5.27;100.00;100649.31;5053193;28;20202;-71
2022/05/04 02:02:44;;;;;;;5.00;3.87;;;;;;;5.17;100.00;100652.84;5053265;28;20187;-72
2022/05/04 02:05:09;;;;;;;4.43;4.03;;;;;;;5.15;100.00;100657.72;5053109;28;20179;-71
2022/05/04 02:07:36;;;;;;;4.20;3.80;;;;;;;5.17;100.00;100652.03;5052988;28;20171;-71
2022/05/04 02:10:05;;;;;;;6.40;4.57;;;;;;;5.18;100.00;100645.53;5052994;28;20312;-71
2022/05/04 02:12:34;;;;;;;8.70;5.17;;;;;;;5.25;100.00;100654.19;5053305;28;20183;-71
2022/05/04 02:14:59;;;;;;;4.93;4.50;;;;;;;5.25;100.00;100644.19;5053297;28;20171;-71
2022/05/04 02:17:25;;;;;;;7.77;5.37;;;;;;;5.22;100.00;100641.22;5052352;28;20199;-72
2022/05/04 02:19:50;;;;;;;6.17;3.70;;;;;;;5.15;100.00;100649.59;5052774;28;20262;-70
2022/05/04 02:22:15;;;;;;;8.90;4.70;;;;;;;5.05;100.00;100647.66;5052831;28;20171;-72
2022/05/04 02:24:40;;;;;;;5.57;4.77;;;;;;;5.00;100.00;100642.25;5053103;28;20171;-71
2022/05/04 02:27:06;;;;;;;11.47;4.83;;;;;;;4.94;100.00;100647.94;5052609;28;20179;-70
2022/05/04 02:29:31;;;;;;;8.07;5.93;;;;;;;4.94;100.00;100642.53;5052730;28;20207;-71
2022/05/04 02:31:58;;;;;;;8.80;4.93;;;;;;;5.00;100.00;100644.97;5052495;28;20561;-71
2022/05/04 02:34:25;;;;;;;6.43;4.80;;;;;;;4.95;100.00;100646.88;5052686;28;20171;-70
2022/05/04 02:39:48;;;;;;;9.77;5.50;;;;;;;4.88;100.00;100643.59;5007857;28;20655;-71
2022/05/04 02:42:13;;;;;;;8.67;4.33;;;;;;;4.95;100.00;100646.88;5052525;28;20274;-70
2022/05/04 02:44:38;;;;;;;5.03;4.53;;;;;;;4.86;100.00;100648.47;5052343;28;20601;-72
2022/05/04 02:47:04;;;;;;;5.80;5.20;;;;;;;4.82;100.00;100644.69;5052120;28;20287;-73
2022/05/04 02:49:29;;;;;;;7.63;4.53;;;;;;;4.83;100.00;100649.00;5052314;28;20258;-71
2022/05/04 02:51:55;;;;;;;8.53;4.67;;;;;;;4.74;100.00;100646.81;5052292;28;20386;-72
2022/05/04 02:54:20;;;;;;;9.00;5.37;;;;;;;4.76;100.00;100646.53;5052259;28;20175;-72
2022/05/04 02:56:45;;;;;;;7.70;4.50;;;;;;;4.76;100.00;100641.94;5052359;28;20281;-71
2022/05/04 02:59:10;;;;;;;8.03;4.63;;;;;;;4.71;100.00;100649.25;5052113;28;20285;-71
2022/05/04 03:04:29;;;;;;;5.23;4.73;;;;;;;4.77;100.00;100643.59;5052871;28;20749;-73
2022/05/04 03:06:54;;;;;;;6.20;4.37;;;;;;;4.73;100.00;100641.69;5052253;28;20250;-72
2022/05/04 03:09:20;;;;;;;5.87;4.70;;;;;;;4.71;100.00;100641.94;5052401;28;20366;-71
2022/05/04 03:11:57;;;;;;;8.27;4.67;;;;;;;4.67;100.00;100637.34;5052492;28;20181;-72
2022/05/04 03:14:24;;;;;;;10.67;5.53;;;;;;;4.52;100.00;100640.00;5052392;28;20164;-71
2022/05/04 03:16:53;;;;;;;7.17;4.97;;;;;;;4.43;100.00;100639.69;5052080;28;20529;-72
2022/05/04 03:19:20;;;;;;;9.67;5.33;;;;;;;4.38;100.00;100645.09;5052103;28;20171;-71
2022/05/04 03:21:46;;;;;;;7.40;4.93;;;;;;;4.30;100.00;100646.41;5052258;28;20194;-71
2022/05/04 03:24:11;;;;;;;7.67;6.03;;;;;;;4.31;100.00;100650.75;5051984;28;20186;-70
2022/05/04 03:26:37;;;;;;;7.20;5.30;;;;;;;4.35;100.00;100654.56;5051886;28;20262;-71
2022/05/04 03:29:03;;;;;;;8.13;5.27;;;;;;;4.34;100.00;100652.94;5051497;28;20199;-71
2022/05/04 03:31:29;;;;;;;5.57;4.23;;;;;;;4.35;100.00;100645.66;5052110;28;20182;-73
2022/05/04 03:33:55;;;;;;;5.00;4.50;;;;;;;4.32;100.00;100646.97;5051721;28;20175;-72
2022/05/04 03:36:20;;;;;;;5.90;4.63;;;;;;;4.34;100.00;100658.34;5051003;28;20586;-71
2022/05/04 03:38:46;;;;;;;6.13;5.10;;;;;;;4.30;100.00;100651.81;5051116;28;20245;-72
2022/05/04 03:41:12;;;;;;;7.77;5.27;;;;;;;4.27;100.00;100648.84;5051440;28;20175;-71
2022/05/04 03:43:38;;;;;;;9.70;6.27;;;;;;;4.27;100.00;100644.25;5051172;28;20228;-73
2022/05/04 03:46:13;;;;;;;10.60;6.47;;;;;;;4.37;100.00;100652.41;5051224;28;20175;-71
2022/05/04 03:48:39;;;;;;;8.37;4.87;;;;;;;4.39;100.00;100652.94;5050980;28;20642;-71
2022/05/04 03:51:05;;;;;;;6.60;4.80;;;;;;;4.35;100.00;100651.88;5051062;28;20168;-71
2022/05/04 03:53:30;;;;;;;7.00;5.10;;;;;;;4.34;100.00;100654.81;5051083;28;20258;-71
2022/05/04 03:55:55;;;;;;;9.53;5.63;;;;;;;4.32;100.00;100646.97;5050905;28;20261;-73
2022/05/04 03:58:21;;;;;;;7.23;5.33;;;;;;;4.32;100.00;100656.97;5050949;28;20233;-71
2022/05/04 04:00:46;;;;;;;5.10;4.60;;;;;;;4.35;100.00;100656.47;5051557;28;20237;-71
2022/05/04 04:03:11;;;;;;;8.03;5.10;;;;;;;4.40;100.00;100646.47;5051547;28;20220;-71
2022/05/04 04:05:37;;;;;;;7.23;5.70;;;;;;;4.52;100.00;100648.13;5051146;28;20222;-71
2022/05/04 04:08:02;;;;;;;9.63;5.40;;;;;;;4.57;100.00;100659.78;5051181;28;20179;-71
2022/05/04 04:10:27;;;;;;;7.90;5.13;;;;;;;4.55;100.00;100658.41;5051423;28;20352;-71
2022/05/04 04:12:53;;;;;;;9.17;4.17;;;;;;;4.58;100.00;100650.56;5051452;28;20184;-71
2022/05/04 04:15:18;;;;;;;8.33;4.37;;;;;;;4.58;100.00;100650.56;5051268;28;20670;-71
2022/05/04 04:17:43;;;;;;;5.63;5.03;;;;;;;4.72;100.00;100648.97;5046393;28;20207;-72
2022/05/04 04:22:53;;;;;;;6.77;5.40;;;;;;;4.83;100.00;100646.31;5051175;28;20678;-70
2022/05/04 04:25:18;;;;;;;7.03;4.63;;;;;;;4.90;100.00;100657.66;5049702;28;20183;-71
2022/05/04 04:27:44;;;;;;;7.70;5.10;;;;;;;4.94;100.00;100664.19;5050824;28;20183;-71
2022/05/04 04:30:10;;;;;;;7.10;5.33;;;;;;;4.97;100.00;100664.47;5050740;28;20202;-71
2022/05/04 04:32:35;;;;;;;5.67;4.83;;;;;;;5.01;100.00;100662.03;5050933;28;20244;-71
2022/05/04 04:35:00;;;;;;;6.60;4.77;;;;;;;4.98;100.00;100660.69;5051289;28;20181;-72
2022/05/04 04:37:26;;;;;;;7.10;4.80;;;;;;;5.03;100.00;100673.41;5050944;28;20615;-71
2022/05/04 04:39:51;;;;;;;7.57;5.33;;;;;;;5.04;100.00;100678.53;5051292;28;20309;-71
2022/05/04 04:42:16;;;;;;;6.17;4.47;;;;;;;5.08;100.00;100676.94;5054472;28;20273;-71
2022/05/04 04:44:41;;;;;;;9.80;4.00;;;;;;;5.12;100.00;100670.97;5055150;28;20517;-71
2022/05/04 04:47:07;;;;;;;4.30;3.90;;;;;;;5.16;100.00;100672.88;5054914;28;20171;-70
2022/05/04 04:49:32;;;;;;;6.13;4.07;;;;;;;5.20;100.00;100673.13;5055226;28;20197;-71
2022/05/04 04:51:58;;;;;;;8.77;4.77;;;;;;;5.28;100.00;100669.91;5055148;28;20198;-71
2022/05/04 04:54:23;;;;;;;6.53;4.00;;;;;;;5.30;100.00;100682.09;5054603;28;20323;-71
2022/05/04 04:56:48;;;;;;;10.50;4.20;;;;;;;5.35;100.00;100675.84;5054692;28;20594;-71
2022/05/04 04:59:13;;;;;;;7.53;4.60;;;;;;;5.44;100.00;100674.25;5054696;28;20264;-71
2022/05/04 05:01:39;;;;;;;5.80;4.43;;;;;;;5.51;100.00;100679.41;5054730;28;20175;-70
2022/05/04 05:04:04;;;;;;;10.40;4.83;;;;;;;5.62;100.00;100681.00;5054951;28;20175;-71
2022/05/04 05:06:30;;;;;;;6.47;4.97;;;;;;;5.75;100.00;100669.59;5054947;28;20175;-71
2022/05/04 05:08:56;;;;;;;7.47;4.57;;;;;;;5.71;100.00;100676.66;5054573;28;20255;-71
2022/05/04 05:11:21;;;;;;;7.57;4.53;;;;;;;5.63;100.00;100679.91;5054483;28;20257;-70
2022/05/04 05:16:31;;;;;;;6.83;5.00;;;;;;;5.70;100.00;100683.16;5054418;28;20174;-71
2022/05/04 05:18:56;;;;;;;9.97;4.63;;;;;;;5.77;100.00;100683.69;5054054;28;20199;-71
2022/05/04 05:21:21;;;;;;;11.03;4.70;;;;;;;5.85;100.00;100685.03;5054362;28;20175;-71
2022/05/04 05:23:46;;;;;;;5.73;4.63;;;;;;;5.96;100.00;100692.09;5050996;28;20187;-71
2022/05/04 05:26:12;;;;;;;9.20;4.43;;;;;;;6.05;99.41;100689.63;5047496;28;20196;-71
2022/05/04 05:28:37;;;;;;;12.97;4.57;;;;;;;6.10;98.59;100692.34;5054023;28;20237;-71
2022/05/04 05:31:03;;;;;;;8.67;5.70;;;;;;;6.02;97.49;100687.47;5053940;28;20215;-71
2022/05/04 05:33:28;;;;;;;10.47;4.53;;;;;;;5.93;96.97;100679.91;5054043;28;20180;-70
2022/05/04 05:35:53;;;;;;;7.77;4.87;;;;;;;6.11;97.68;100683.13;5054053;28;20179;-71
2022/05/04 05:38:20;;;;;;;7.87;4.93;;;;;;;6.19;97.25;100687.97;5053870;28;20729;-71
2022/05/04 05:40:47;;;;;;;11.30;5.13;;;;;;;6.13;96.43;100692.59;5054050;28;20172;-71
2022/05/04 05:43:12;;;;;;;5.93;3.87;;;;;;;6.16;95.57;100683.09;5053666;28;20206;-71
2022/05/04 05:45:37;;;;;;;12.17;4.83;;;;;;;6.36;95.84;100696.59;5053925;28;20258;-71
2022/05/04 05:48:03;;;;;;;8.10;5.33;;;;;;;6.45;95.07;100689.50;5053396;28;20183;-71
2022/05/04 05:50:29;;;;;;;9.00;4.33;;;;;;;6.66;95.34;100686.72;5054113;28;20180;-71
2022/05/04 05:52:54;;;;;;;4.60;3.53;;;;;;;6.82;94.29;100696.41;5053316;28;20691;-70
2022/05/04 05:55:20;;;;;;;9.00;4.90;;;;;;;6.85;93.14;100693.94;5053680;28;20187;-72
2022/05/04 05:57:46;;;;;;;5.43;4.33;;;;;;;7.00;92.67;100698.47;5053377;28;20195;-71
2022/05/04 06:00:13;;;;;;;7.57;4.17;;;;;;;7.19;92.40;100698.59;5053987;28;20225;-71
2022/05/04 06:02:38;;;;;;;9.33;4.57;;;;;;;7.26;90.98;100695.56;5053578;28;20178;-71
2022/05/04 06:05:04;;;;;;;10.90;3.93;;;;;;;7.18;89.68;100702.41;5053461;28;20172;-71
2022/05/04 06:07:29;;;;;;;8.63;5.27;;;;;;;7.35;89.03;100688.44;5053368;28;20631;-71
2022/05/04 06:09:55;;;;;;;5.93;3.50;;;;;;;7.34;88.43;100698.47;5053295;28;20190;-71
2022/05/04 06:12:20;;;;;;;9.43;4.30;;;;;;;7.33;89.12;100691.44;5053372;28;20762;-71
2022/05/04 06:14:45;;;;;;;6.40;4.23;;;;;;;7.52;89.62;100696.16;5053383;28;20722;-70
2022/05/04 06:17:11;;;;;;;9.50;4.30;;;;;;;7.55;88.48;100696.44;5053009;28;20206;-70
2022/05/04 06:19:36;;;;;;;11.97;4.20;;;;;;;7.68;88.71;100687.63;5053074;28;20186;-71
2022/05/04 06:22:02;;;;;;;8.13;4.70;;;;;;;7.72;87.94;100699.53;5053212;28;20178;-71
2022/05/04 06:24:27;;;;;;;10.87;4.07;;;;;;;7.84;86.85;100692.91;5053047;28;20179;-73
2022/05/04 06:26:53;;;;;;;6.90;3.97;;;;;;;7.87;86.35;100689.59;5052841;28;20213;-70
2022/05/04 06:29:18;;;;;;;8.00;4.23;;;;;;;7.85;85.83;100686.38;5052926;28;20175;-71
2022/05/04 06:34:27;;;;;;;4.03;3.53;;;;;;;7.98;86.11;100694.66;5052975;28;20525;-71
2022/05/04 06:36:53;;;;;;;10.80;4.30;;;;;;;8.16;86.58;100700.47;5034896;28;20171;-71
2022/05/04 06:39:18;;;;;;;4.17;3.70;;;;;;;8.14;85.60;100703.47;5052612;28;20218;-71
2022/05/04 06:41:43;;;;;;;7.30;3.70;;;;;;;8.26;85.04;100706.63;5052567;28;20261;-71
2022/05/04 06:44:09;;;;;;;5.00;3.90;;;;;;;8.34;85.09;100706.00;5052944;28;20175;-74
2022/05/04 06:46:41;;;;;;;9.37;3.83;;;;;;;8.36;85.08;100705.69;5052140;28;20183;-74
2022/05/04 06:49:07;;;;;;;8.77;3.80;;;;;;;8.43;83.85;100705.38;5054718;28;20384;-72
2022/05/04 06:51:33;;;;;;;12.60;4.00;;;;;;;8.49;83.35;100701.47;5037254;28;20314;-73
2022/05/04 06:53:59;;;;;;;9.43;3.23;;;;;;;8.43;82.40;100694.47;5052586;28;20171;-73
2022/05/04 06:56:24;;;;;;;6.70;3.17;;;;;;;8.45;81.81;100706.69;5052232;28;20175;-73
2022/05/04 06:58:49;;;;;;;4.63;3.03;;;;;;;8.55;81.06;100703.03;5052377;28;20253;-70
2022/05/04 07:01:15;;;;;;;3.83;2.70;;;;;;;8.46;80.62;100700.16;5052948;28;20206;-70
2022/05/04 07:03:40;;;;;;;6.37;3.47;;;;;;;8.59;81.57;100701.34;5051692;28;20270;-71
2022/05/04 07:06:06;;;;;;;7.77;3.30;;;;;;;8.85;81.09;100705.38;5052148;28;20210;-71
2022/05/04 07:08:32;;;;;;;7.87;3.30;;;;;;;8.87;80.02;100702.34;5051947;28;20542;-71
2022/05/04 07:10:57;;;;;;;4.53;3.57;;;;;;;8.86;79.54;100707.00;5052252;28;20175;-71
2022/05/04 07:13:23;;;;;;;7.73;3.23;;;;;;;8.89;79.83;100700.13;5051312;28;20274;-71
2022/05/04 07:15:49;;;;;;;10.30;3.33;;;;;;;9.08;80.15;100706.41;5047234;28;20191;-70
2022/05/04 07:18:14;;;;;;;5.10;3.37;;;;;;;8.99;79.15;100707.38;5050986;28;20206;-71
2022/05/04 07:20:40;;;;;;;8.33;3.60;;;;;;;8.97;79.80;100698.66;5051976;28;20229;-71
2022/05/04 07:23:05;;;;;;;9.87;4.00;;;;;;;9.08;80.04;100700.13;5051783;28;20186;-71
2022/05/04 07:25:30;;;;;;;4.27;2.93;;;;;;;9.04;78.99;100696.38;5051918;28;20827;-71
2022/05/04 07:27:56;;;;;;;17.17;4.10;;;;;;;9.27;80.29;100700.97;5051718;28;20233;-71
2022/05/04 07:30:21;;;;;;;6.80;3.00;;;;;;;9.60;79.70;100700.97;5051717;28;20214;-71
2022/05/04 07:32:47;;;;;;;8.13;3.53;;;;;;;9.78;78.51;100697.38;5051700;28;20179;-70
2022/05/04 07:35:17;;;;;;;8.27;3.77;;;;;;;9.70;76.98;100698.88;5051499;28;20175;-72
2022/05/04 07:37:42;;;;;;;5.90;3.73;;;;;;;9.84;76.49;100697.00;5051223;28;20559;-71
2022/05/04 07:42:53;;;;;;;5.20;3.57;;;;;;;9.80;77.01;100695.16;5050934;28;20213;-71
2022/05/04 07:45:19;;;;;;;5.37;3.27;;;;;;;9.88;76.29;100691.75;5048300;28;20183;-72
2022/05/04 07:47:46;;;;;;;5.93;3.60;;;;;;;9.70;74.70;100690.69;5051184;28;20202;-71
2022/05/04 07:50:11;;;;;;;3.90;3.33;;;;;;;9.74;75.41;100697.19;5051214;28;20269;-73
2022/05/04 07:52:37;;;;;;;5.30;3.03;;;;;;;9.98;74.39;100690.72;5051650;28;20257;-73
2022/05/04 07:55:03;;;;;;;7.07;2.90;;;;;;;10.18;74.29;100695.81;5051208;28;20171;-74
2022/05/04 07:57:28;;;;;;;4.07;2.90;;;;;;;10.28;73.14;100695.66;5050947;28;20195;-73
2022/05/04 08:05:24;;;;;;;7.40;3.13;;;;;;;10.30;71.77;100696.16;5051199;28;20703;-70
2022/05/04 08:07:49;;;;;;;7.60;3.93;;;;;;;10.26;72.11;100695.13;5050910;28;20178;-75
2022/05/04 08:10:15;;;;;;;7.27;3.43;;;;;;;10.13;72.89;100704.13;5051207;28;20270;-72
2022/05/04 08:12:43;;;;;;;7.17;3.63;;;;;;;10.00;73.24;100686.63;5051056;28;20163;-74
2022/05/04 08:15:11;;;;;;;7.30;3.20;;;;;;;10.14;73.63;100695.63;5050665;28;20642;-72
2022/05/04 08:17:36;;;;;;;6.33;3.50;;;;;;;10.30;72.85;100687.97;5032527;28;20203;-72
2022/05/04 08:20:02;;;;;;;4.00;3.40;;;;;;;10.45;73.19;100683.31;5046326;28;20555;-73
2022/05/04 08:22:27;;;;;;;8.43;4.03;;;;;;;10.76;73.17;100683.47;5042116;28;20179;-71
2022/05/04 08:24:54;;;;;;;7.17;3.40;;;;;;;10.78;73.19;100684.78;5050473;28;20181;-70
2022/05/04 08:27:20;;;;;;;5.90;3.57;;;;;;;10.73;73.17;100677.53;5050738;28;20220;-74
2022/05/04 08:29:45;;;;;;;4.07;3.27;;;;;;;10.96;73.18;100680.28;5050315;28;20651;-73
2022/05/04 08:32:11;;;;;;;6.30;4.40;;;;;;;10.85;71.65;100692.56;5049891;28;20179;-71
2022/05/04 08:34:36;;;;;;;4.30;2.87;;;;;;;10.90;71.75;100681.53;5051148;28;20175;-72
2022/05/04 08:37:02;;;;;;;5.90;3.33;;;;;;;10.89;71.10;100686.19;5056287;28;20557;-72
2022/05/04 08:39:27;;;;;;;14.17;4.10;;;;;;;10.92;71.48;100684.75;5056378;28;20187;-71
2022/05/04 08:41:54;;;;;;;10.27;3.93;;;;;;;11.00;71.67;100679.38;5057914;28;20191;-71
2022/05/04 08:44:19;;;;;;;7.20;4.17;;;;;;;10.88;71.82;100681.84;5051171;28;20258;-71
2022/05/04 08:46:45;;;;;;;6.07;3.53;;;;;;;10.76;71.48;100676.09;5051119;28;20597;-71
2022/05/04 08:49:12;;;;;;;5.00;3.57;;;;;;;10.97;71.48;100676.44;5050420;28;20241;-71
2022/05/04 08:51:40;;;;;;;6.13;3.90;;;;;;;11.26;71.59;100684.25;5051119;28;20635;-71
2022/05/04 08:54:10;;;;;;;4.40;3.10;;;;;;;11.01;71.06;100685.66;5050831;28;20376;-71
2022/05/04 08:56:35;;;;;;;8.60;4.00;;;;;;;11.07;71.41;100689.06;5051368;28;20674;-71
2022/05/04 08:59:05;;;;;;;8.40;4.07;;;;;;;10.89;71.87;100679.91;5050484;28;20226;-71
2022/05/04 09:01:32;;;;;;;6.90;3.73;;;;;;;10.84;71.79;100685.47;5050252;28;20187;-71
2022/05/04 09:03:59;;;;;;;7.23;3.57;;;;;;;11.31;72.13;100679.47;5049992;28;20258;-72
2022/05/04 09:06:26;;;;;;;3.67;3.00;;;;;;;11.46;70.17;100674.75;5049917;28;20179;-71
2022/05/04 09:09:08;;;;;;;5.40;3.37;;;;;;;11.50;69.92;100675.72;5031864;28;20186;-71
2022/05/04 09:11:39;;;;;;;7.27;3.43;;;;;;;11.59;70.01;100674.69;5049755;28;20177;-71
2022/05/04 09:14:17;;;;;;;5.37;3.60;;;;;;;11.45;69.92;100673.13;5049915;28;20175;-71
2022/05/04 09:16:42;;;;;;;6.40;4.07;;;;;;;11.42;69.34;100668.25;5049983;28;20170;-72
2022/05/04 09:19:13;;;;;;;4.30;3.90;;;;;;;11.60;69.22;100673.56;5049391;28;20207;-71
2022/05/04 09:21:39;;;;;;;4.90;3.53;;;;;;;11.84;69.76;100665.00;5048596;28;20171;-70
2022/05/04 09:24:05;;;;;;;3.80;3.47;;;;;;;11.98;68.28;100664.13;5048012;28;20183;-71
2022/05/04 09:26:32;;;;;;;6.43;4.27;;;;;;;12.01;69.93;100655.28;5046923;28;20634;-72
2022/05/04 09:29:02;;;;;;;6.87;4.17;;;;;;;12.12;68.75;100662.06;5050122;28;20195;-70
2022/05/04 09:31:30;;;;;;;6.47;3.50;;;;;;;12.23;69.12;100663.41;5050810;28;20175;-73
2022/05/04 09:33:57;;;;;;;6.93;4.43;;;;;;;11.99;67.80;100655.56;5053706;28;20325;-71
2022/05/04 09:36:29;;;;;;;7.97;3.70;;;;;;;12.33;68.33;100665.88;5052959;28;20190;-72
2022/05/04 09:47:19;;;;;;;5.27;4.43;;;;;;;12.43;66.87;100657.34;5072927;28;20200;-72
2022/05/04 09:49:46;;;;;;;7.70;4.17;;;;;;;12.44;68.20;100660.88;5073014;28;20258;-71
2022/05/04 09:52:14;;;;;;;7.20;3.70;;;;;;;12.63;68.51;100655.16;5073240;28;20178;-72
2022/05/04 09:54:39;;;;;;;8.03;3.93;;;;;;;12.64;67.69;100654.81;5072887;28;20719;-71
2022/05/04 09:57:06;;;;;;;5.73;4.63;;;;;;;12.72;67.58;100651.28;5072693;28;20175;-71
2022/05/04 09:59:32;;;;;;;5.13;3.70;;;;;;;12.92;67.15;100658.09;5072817;28;20166;-72
2022/05/04 10:02:00;;;;;;;5.63;3.80;;;;;;;12.92;65.95;100649.84;5072852;28;20507;-72
2022/05/04 10:04:27;;;;;;;5.20;3.97;;;;;;;13.05;66.57;100648.91;5072869;28;20258;-72
2022/05/04 10:06:53;;;;;;;6.03;3.97;;;;;;;13.49;66.53;100655.19;5073029;28;20175;-72
2022/05/04 10:09:20;;;;;;;4.70;4.10;;;;;;;13.00;65.10;100646.28;5073077;28;20210;-72
2022/05/04 10:11:46;;;;;;;4.33;3.37;;;;;;;13.28;65.40;100644.06;5072586;28;20216;-72
2022/05/04 10:14:15;;;;;;;7.37;4.70;;;;;;;12.90;65.57;100648.56;5072582;28;20235;-72
2022/05/04 10:16:57;;;;;;;6.63;4.07;;;;;;;13.03;65.87;100636.66;5072579;28;20539;-72
2022/05/04 10:19:25;;;;;;;6.97;4.63;;;;;;;13.47;65.46;100637.44;5072157;28;20245;-72
2022/05/04 10:21:55;;;;;;;4.43;4.03;;;;;;;13.36;66.69;100626.78;5072510;28;20171;-72
2022/05/04 10:24:22;;;;;;;6.37;4.43;;;;;;;13.24;65.25;100629.38;5072450;28;20194;-72
2022/05/04 10:26:48;;;;;;;5.40;4.43;;;;;;;13.62;65.63;100621.25;5072505;28;20174;-72
2022/05/04 10:32:43;;;;;;;4.80;4.00;;;;;;;13.40;65.15;100621.44;5063487;28;20190;-72
2022/05/04 10:35:13;;;;;;;5.30;4.27;;;;;;;13.46;64.94;100622.09;5052171;28;20262;-73
2022/05/04 10:37:59;;;;;;;5.23;4.50;;;;;;;13.74;65.22;100619.75;5044123;28;20195;-73
2022/05/04 10:40:44;;;;;;;5.50;4.70;;;;;;;13.87;64.52;100615.97;5018083;28;20655;-72
2022/05/04 10:43:12;;;;;;;6.23;4.23;;;;;;;13.60;65.03;100619.97;5052498;28;20183;-72
2022/05/04 10:45:40;;;;;;;4.80;3.77;;;;;;;13.54;65.63;100622.06;5052132;28;20191;-71
2022/05/04 10:48:20;;;;;;;6.27;3.90;;;;;;;13.72;64.76;100616.53;5051832;28;20280;-72
2022/05/04 10:50:50;;;;;;;7.00;4.40;;;;;;;13.91;64.62;100614.22;5048324;28;20186;-72
2022/05/04 10:53:21;;;;;;;5.57;5.00;;;;;;;14.03;64.64;100614.28;5050822;28;20578;-71
2022/05/04 10:55:55;;;;;;;6.43;4.30;;;;;;;14.45;64.79;100617.97;5052184;28;20377;-73
2022/05/04 10:58:35;;;;;;;7.53;4.40;;;;;;;14.82;64.77;100609.97;5051655;28;20210;-72
2022/05/04 11:01:17;;;;;;;8.50;4.30;;;;;;;14.55;62.32;100612.09;5033816;28;20201;-72
2022/05/04 11:04:07;;;;;;;5.60;4.80;;;;;;;14.59;62.41;100606.72;5051595;28;20171;-72
2022/05/04 11:07:00;;;;;;;6.17;4.23;;;;;;;14.61;62.24;100593.47;5051521;28;20183;-71
2022/05/04 11:09:32;;;;;;;5.67;4.57;;;;;;;15.08;62.10;100601.50;5051576;28;20167;-72
2022/05/04 11:11:59;;;;;;;7.57;4.43;;;;;;;15.30;61.90;100598.34;5052129;28;20166;-72
2022/05/04 11:14:25;;;;;;;6.90;4.43;;;;;;;15.35;61.06;100602.88;5051517;28;20179;-72
2022/05/04 11:16:53;;;;;;;6.17;4.30;;;;;;;15.22;60.31;100606.72;5051477;28;20305;-71
2022/05/04 11:19:21;;;;;;;5.67;5.07;;;;;;;15.20;60.98;100592.50;5032606;28;20215;-73
2022/05/04 11:21:47;;;;;;;5.27;4.23;;;;;;;15.08;61.33;100587.75;5051307;28;20179;-72
2022/05/04 11:24:14;;;;;;;6.63;4.37;;;;;;;14.73;61.23;100589.97;5051159;28;20180;-72
2022/05/04 11:26:46;;;;;;;6.77;5.00;;;;;;;14.75;61.87;100582.97;5051694;28;20230;-71
2022/05/04 11:29:21;;;;;;;6.27;5.03;;;;;;;14.66;61.97;100579.50;5051209;28;20550;-71
2022/05/04 11:31:54;;;;;;;6.27;5.67;;;;;;;14.28;62.80;100574.06;5051161;28;20183;-71
2022/05/04 11:34:20;;;;;;;9.77;4.23;;;;;;;14.85;62.97;100585.34;5051199;28;20175;-72
2022/05/04 11:36:48;;;;;;;8.80;4.27;;;;;;;15.43;62.09;100586.22;5051125;28;20175;-72
2022/05/04 11:39:19;;;;;;;5.73;4.57;;;;;;;15.26;61.03;100580.91;5051347;28;20203;-72
2022/05/04 11:41:47;;;;;;;4.93;4.47;;;;;;;15.09;61.48;100587.41;5050962;28;20233;-72
2022/05/04 11:44:13;;;;;;;5.47;4.80;;;;;;;15.28;61.62;100584.13;5051064;28;20202;-72
2022/05/04 11:46:41;;;;;;;5.07;4.10;;;;;;;15.60;61.38;100578.94;5050893;28;20180;-73
2022/05/04 11:49:08;;;;;;;7.57;4.70;;;;;;;15.36;60.25;100579.69;5050715;28;20179;-72
2022/05/04 11:51:34;;;;;;;6.00;4.53;;;;;;;15.56;61.89;100580.75;5049187;28;20282;-72
2022/05/04 11:54:00;;;;;;;5.97;4.63;;;;;;;15.63;61.56;100576.34;5049750;28;20309;-72
2022/05/04 11:56:26;;;;;;;8.47;5.47;;;;;;;15.57;60.74;100568.59;5050551;28;20265;-72
2022/05/04 11:58:52;;;;;;;5.90;4.50;;;;;;;15.32;60.63;100570.47;5050171;28;20203;-71